createdAt,value
2023-03-21T00:01:08.046Z,102.90
2023-03-21T00:03:36.554Z,107.47
2023-03-21T00:06:07.630Z,100.73
2023-03-21T00:08:35.995Z,102.13
2023-03-21T00:11:06.253Z,100.80
2023-03-21T00:13:38.478Z,101.17
2023-03-21T00:16:12.844Z,102.70
2023-03-21T00:18:52.650Z,103.20
2023-03-21T00:24:16.678Z,98.60
2023-03-21T00:26:44.942Z,98.73
2023-03-21T00:29:14.593Z,100.53
2023-03-21T00:31:42.783Z,99.00
2023-03-21T00:36:45.338Z,98.17
2023-03-21T00:39:14.206Z,99.63
2023-03-21T00:41:43.519Z,102.80
2023-03-21T00:44:13.952Z,103.63
2023-03-21T00:46:57.045Z,102.00
2023-03-21T00:49:48.569Z,102.30
2023-03-21T00:52:22.338Z,100.07
2023-03-21T00:54:58.906Z,101.20
2023-03-21T00:57:38.085Z,103.33
2023-03-21T01:00:10.439Z,103.97
2023-03-21T01:03:02.643Z,99.53
2023-03-21T01:05:54.352Z,100.67
2023-03-21T01:08:29.328Z,101.70
2023-03-21T01:11:03.956Z,105.17
2023-03-21T01:13:34.615Z,101.37
2023-03-21T01:16:06.614Z,103.73
2023-03-21T01:18:38.213Z,102.23
2023-03-21T01:21:10.558Z,96.13
2023-03-21T01:23:39.432Z,99.63
2023-03-21T01:26:08.061Z,102.07
2023-03-21T01:28:37.480Z,97.30
2023-03-21T01:31:07.093Z,100.80
2023-03-21T01:33:36.974Z,95.13
2023-03-21T01:36:12.807Z,96.97
2023-03-21T01:38:42.136Z,95.40
2023-03-21T01:41:20.357Z,99.33
2023-03-21T01:43:49.002Z,95.03
2023-03-21T01:46:47.742Z,102.90
2023-03-21T01:49:26.640Z,102.43
2023-03-21T01:52:03.582Z,102.70
2023-03-21T01:54:41.645Z,102.30
2023-03-21T01:57:14.473Z,98.57
2023-03-21T01:59:46.399Z,100.73
2023-03-21T02:02:20.858Z,100.83
2023-03-21T02:04:55.991Z,99.07
2023-03-21T02:07:28.901Z,100.37
2023-03-21T02:09:59.144Z,96.20
2023-03-21T02:12:27.756Z,100.20
2023-03-21T02:14:56.769Z,97.87
2023-03-21T02:17:31.080Z,104.47
2023-03-21T02:20:36.666Z,105.43
2023-03-21T02:23:27.215Z,106.90
2023-03-21T02:26:23.344Z,106.47
2023-03-21T02:28:57.140Z,101.87
2023-03-21T02:31:32.429Z,101.70
2023-03-21T02:34:30.044Z,104.33
2023-03-21T02:37:08.373Z,102.27
2023-03-21T02:39:46.015Z,104.43
2023-03-21T02:42:19.537Z,102.23
2023-03-21T02:44:51.295Z,103.33
2023-03-21T02:47:23.173Z,102.40
2023-03-21T02:49:56.992Z,102.27
2023-03-21T02:52:38.595Z,99.50
2023-03-21T02:55:14.190Z,101.93
2023-03-21T02:57:45.353Z,103.93
2023-03-21T03:00:19.721Z,101.73
2023-03-21T03:02:54.639Z,101.83
2023-03-21T03:05:28.158Z,101.87
2023-03-21T03:08:13.074Z,103.93
2023-03-21T03:10:57.385Z,102.03
2023-03-21T03:13:39.588Z,103.13
2023-03-21T03:16:19.870Z,101.73
2023-03-21T03:18:52.404Z,99.53
2023-03-21T03:21:27.752Z,97.13
2023-03-21T03:24:02.005Z,101.07
2023-03-21T03:26:34.469Z,100.80
2023-03-21T03:29:07.625Z,99.70
2023-03-21T03:31:40.229Z,99.30
2023-03-21T03:34:13.053Z,100.03
2023-03-21T03:36:44.331Z,99.50
2023-03-21T03:39:15.908Z,99.30
2023-03-21T03:42:07.976Z,97.70
2023-03-21T03:44:37.457Z,98.83
2023-03-21T03:47:09.088Z,98.33
2023-03-21T03:49:40.796Z,100.63
2023-03-21T03:52:14.810Z,100.00
2023-03-21T03:54:46.920Z,94.73
2023-03-21T03:57:16.161Z,98.73
2023-03-21T03:59:46.502Z,98.13
2023-03-21T04:02:17.226Z,95.43
2023-03-21T04:04:45.807Z,95.20
2023-03-21T04:07:14.089Z,95.07
2023-03-21T04:09:44.886Z,102.13
2023-03-21T04:12:14.899Z,96.17
2023-03-21T04:14:46.156Z,96.10
2023-03-21T04:17:15.758Z,98.10
2023-03-21T04:19:45.428Z,96.77
2023-03-21T04:22:14.228Z,96.97
2023-03-21T04:24:42.773Z,100.20
2023-03-21T04:27:11.356Z,102.43
2023-03-21T04:29:41.291Z,95.37
2023-03-21T04:32:16.374Z,92.40
2023-03-21T04:34:49.949Z,92.73
2023-03-21T04:37:19.226Z,93.77
2023-03-21T04:39:48.349Z,94.20
2023-03-21T04:42:18.646Z,93.60
2023-03-21T04:44:48.779Z,89.67
2023-03-21T04:47:20.288Z,88.27
2023-03-21T04:49:49.067Z,89.73
2023-03-21T04:52:17.305Z,86.77
2023-03-21T04:54:45.567Z,87.60
2023-03-21T04:57:13.682Z,84.10
2023-03-21T04:59:42.093Z,87.17
2023-03-21T05:02:11.845Z,82.90
2023-03-21T05:04:40.202Z,84.00
2023-03-21T05:07:08.700Z,83.73
2023-03-21T05:09:36.909Z,85.90
2023-03-21T05:12:05.476Z,82.33
2023-03-21T05:14:33.649Z,82.83
2023-03-21T05:17:05.523Z,80.40
2023-03-21T05:19:40.762Z,79.57
2023-03-21T05:22:10.928Z,78.00
2023-03-21T05:24:42.061Z,78.37
2023-03-21T05:27:10.345Z,78.50
2023-03-21T05:29:38.657Z,76.60
2023-03-21T05:32:07.109Z,77.00
2023-03-21T05:34:36.851Z,75.40
2023-03-21T05:37:04.959Z,77.00
2023-03-21T05:39:33.237Z,75.70
2023-03-21T05:42:01.468Z,77.30
2023-03-21T05:44:29.586Z,87.10
2023-03-21T05:46:58.484Z,82.90
2023-03-21T05:49:27.029Z,79.53
2023-03-21T05:51:56.541Z,81.43
2023-03-21T05:54:25.016Z,80.73
2023-03-21T05:56:53.103Z,83.57
2023-03-21T05:59:21.356Z,82.60
2023-03-21T06:01:49.691Z,85.57
2023-03-21T06:04:17.943Z,76.37
2023-03-21T06:06:46.175Z,77.97
2023-03-21T06:09:15.704Z,75.03
2023-03-21T06:11:49.519Z,76.47
2023-03-21T06:14:17.865Z,72.80
2023-03-21T06:16:46.424Z,76.57
2023-03-21T06:19:14.638Z,74.10
2023-03-21T06:21:43.264Z,75.70
2023-03-21T06:24:11.580Z,73.07
2023-03-21T06:26:42.492Z,73.80
2023-03-21T06:29:11.008Z,74.87
2023-03-21T06:31:39.560Z,74.57
2023-03-21T06:34:08.200Z,75.20
2023-03-21T06:36:36.621Z,74.43
2023-03-21T06:39:05.942Z,73.87
2023-03-21T06:41:34.100Z,76.83
2023-03-21T06:44:04.359Z,74.10
2023-03-21T06:46:32.609Z,71.93
2023-03-21T06:49:00.869Z,76.40
2023-03-21T06:51:28.857Z,77.30
2023-03-21T06:53:57.008Z,82.30
2023-03-21T06:56:25.368Z,78.37
2023-03-21T06:58:53.549Z,80.10
2023-03-21T07:01:23.307Z,79.40
2023-03-21T07:03:53.706Z,77.60
2023-03-21T07:06:22.354Z,70.90
2023-03-21T07:08:50.475Z,74.83
2023-03-21T07:11:18.795Z,72.33
2023-03-21T07:13:48.635Z,71.27
2023-03-21T07:16:21.609Z,71.50
2023-03-21T07:18:51.475Z,68.87
2023-03-21T07:21:19.762Z,66.60
2023-03-21T07:23:50.297Z,64.97
2023-03-21T07:26:19.308Z,60.57
2023-03-21T07:28:47.524Z,61.17
2023-03-21T07:31:17.920Z,63.20
2023-03-21T07:33:46.341Z,65.87
2023-03-21T07:36:17.064Z,66.90
2023-03-21T07:38:46.531Z,69.10
2023-03-21T07:43:48.097Z,68.37
2023-03-21T07:46:16.234Z,72.37
2023-03-21T07:48:44.527Z,70.87
2023-03-21T07:51:12.637Z,66.70
2023-03-21T07:53:43.804Z,68.93
2023-03-21T07:56:12.024Z,66.83
2023-03-21T07:58:40.440Z,65.63
2023-03-21T08:01:08.683Z,67.07
2023-03-21T08:03:38.085Z,67.27
2023-03-21T08:06:06.977Z,63.17
2023-03-21T08:08:35.288Z,61.90
2023-03-21T08:11:05.301Z,64.67
2023-03-21T08:13:33.519Z,61.17
2023-03-21T08:16:01.693Z,61.40
2023-03-21T08:18:29.829Z,60.77
2023-03-21T08:20:59.186Z,59.07
2023-03-21T08:23:27.656Z,59.37
2023-03-21T08:25:56.750Z,60.37
2023-03-21T08:28:26.279Z,61.20
2023-03-21T08:30:54.643Z,55.90
2023-03-21T08:33:23.046Z,57.67
2023-03-21T08:35:51.662Z,53.33
2023-03-21T08:38:19.813Z,54.03
2023-03-21T08:40:47.966Z,56.00
2023-03-21T08:43:16.161Z,55.80
2023-03-21T08:45:45.664Z,55.50
2023-03-21T08:48:13.931Z,55.97
2023-03-21T08:50:41.929Z,53.03
2023-03-21T08:53:10.108Z,50.80
2023-03-21T08:55:38.685Z,50.10
2023-03-21T08:58:07.585Z,48.37
2023-03-21T09:00:35.870Z,46.30
2023-03-21T09:03:05.370Z,42.30
2023-03-21T09:05:33.761Z,42.27
2023-03-21T09:08:03.444Z,40.40
2023-03-21T09:10:33.812Z,42.10
2023-03-21T09:13:02.267Z,41.63
2023-03-21T09:15:30.818Z,41.77
2023-03-21T09:18:13.194Z,42.80
2023-03-21T09:20:43.825Z,43.77
2023-03-21T09:23:13.313Z,42.03
2023-03-21T09:25:42.366Z,41.97
2023-03-21T09:28:11.456Z,46.20
2023-03-21T09:30:39.688Z,47.00
2023-03-21T09:33:13.128Z,46.63
2023-03-21T09:35:42.797Z,46.17
2023-03-21T09:38:11.040Z,43.57
2023-03-21T09:40:52.771Z,40.83
2023-03-21T09:43:36.005Z,43.00
2023-03-21T09:46:11.430Z,40.00
2023-03-21T09:48:56.661Z,38.13
2023-03-21T09:51:31.304Z,38.07
2023-03-21T09:54:03.757Z,38.47
2023-03-21T09:56:32.063Z,33.97
2023-03-21T09:59:02.518Z,33.33
2023-03-21T10:01:34.475Z,35.00
2023-03-21T10:04:05.889Z,34.03
2023-03-21T10:06:40.294Z,32.80
2023-03-21T10:09:16.190Z,30.77
2023-03-21T10:11:46.685Z,31.00
2023-03-21T10:14:20.591Z,31.53
2023-03-21T10:16:57.383Z,29.57
2023-03-21T10:19:27.308Z,27.77
2023-03-21T10:22:01.119Z,26.80
2023-03-21T10:24:32.692Z,26.60
2023-03-21T10:27:02.491Z,28.80
2023-03-21T10:29:33.839Z,26.33
2023-03-21T10:32:02.108Z,24.83
2023-03-21T10:34:34.183Z,25.77
2023-03-21T10:37:05.853Z,23.80
2023-03-21T10:39:37.604Z,24.17
2023-03-21T10:42:05.909Z,24.20
2023-03-21T10:44:36.273Z,23.90
2023-03-21T10:47:07.398Z,24.60
2023-03-21T10:49:56.436Z,23.27
2023-03-21T10:52:31.298Z,23.07
2023-03-21T10:55:17.691Z,24.70
2023-03-21T10:57:47.337Z,23.10
2023-03-21T11:00:21.604Z,22.77
2023-03-21T11:02:52.818Z,22.80
2023-03-21T11:05:24.121Z,21.33
2023-03-21T11:08:04.861Z,21.70
2023-03-21T11:10:35.652Z,21.57
2023-03-21T11:13:08.407Z,20.97
2023-03-21T11:15:53.765Z,21.30
2023-03-21T11:18:24.832Z,21.10
2023-03-21T11:20:55.728Z,20.70
2023-03-21T11:23:29.935Z,20.73
2023-03-21T11:26:00.502Z,21.10
2023-03-21T11:28:37.438Z,20.40
2023-03-21T11:31:09.313Z,20.50
2023-03-21T11:33:40.353Z,20.23
2023-03-21T11:36:26.222Z,20.10
2023-03-21T11:39:03.786Z,20.90
2023-03-21T11:41:34.574Z,20.80
2023-03-21T11:44:03.702Z,20.40
2023-03-21T11:46:33.014Z,20.20
2023-03-21T11:49:02.470Z,19.53
2023-03-21T11:51:39.852Z,19.20
2023-03-21T11:54:17.662Z,19.60
2023-03-21T11:56:48.559Z,19.40
2023-03-21T11:59:38.190Z,19.33
2023-03-21T12:02:32.659Z,19.13
2023-03-21T12:05:05.535Z,20.40
2023-03-21T12:07:46.315Z,19.10
2023-03-21T12:10:37.006Z,19.13
2023-03-21T12:13:19.870Z,18.90
2023-03-21T12:16:11.613Z,18.87
2023-03-21T12:18:57.769Z,20.70
2023-03-21T12:21:32.530Z,20.13
2023-03-21T12:24:06.910Z,19.90
2023-03-21T12:26:44.908Z,19.40
2023-03-21T12:29:30.126Z,19.53
2023-03-21T12:32:16.681Z,19.90
2023-03-21T12:35:03.732Z,19.83
2023-03-21T12:37:41.224Z,19.40
2023-03-21T12:40:23.207Z,19.47
2023-03-21T12:43:05.249Z,20.00
2023-03-21T12:45:46.510Z,19.97
2023-03-21T12:48:23.760Z,21.97
2023-03-21T12:50:55.481Z,21.00
2023-03-21T12:53:35.757Z,21.47
2023-03-21T12:56:09.828Z,21.03
2023-03-21T12:58:47.341Z,21.10
2023-03-21T13:01:19.035Z,20.50
2023-03-21T13:03:52.623Z,20.20
2023-03-21T13:06:24.690Z,20.20
2023-03-21T13:08:57.679Z,19.10
2023-03-21T13:11:29.691Z,19.50
2023-03-21T13:14:05.652Z,18.20
2023-03-21T13:16:38.004Z,18.27
2023-03-21T13:19:17.451Z,18.00
2023-03-21T13:21:52.675Z,18.50
2023-03-21T13:24:29.133Z,17.87
2023-03-21T13:27:04.278Z,18.57
2023-03-21T13:29:42.593Z,18.00
2023-03-21T13:32:16.962Z,19.03
2023-03-21T13:34:45.714Z,17.90
2023-03-21T13:37:20.077Z,18.57
2023-03-21T13:39:50.614Z,18.10
2023-03-21T13:42:24.506Z,18.57
2023-03-21T13:44:59.201Z,18.10
2023-03-21T13:47:54.118Z,19.30
2023-03-21T13:50:28.691Z,17.90
2023-03-21T13:53:22.771Z,17.70
2023-03-21T13:56:10.774Z,17.40
2023-03-21T13:58:41.243Z,17.63
2023-03-21T14:01:26.309Z,17.87
2023-03-21T14:04:01.060Z,17.63
2023-03-21T14:06:35.872Z,17.93
2023-03-21T14:09:04.836Z,18.50
2023-03-21T14:11:36.718Z,18.07
2023-03-21T14:14:05.863Z,18.03
2023-03-21T14:16:35.598Z,18.50
2023-03-21T14:19:06.763Z,18.47
2023-03-21T14:21:36.892Z,18.90
2023-03-21T14:24:07.005Z,18.83
2023-03-21T14:26:38.470Z,19.70
2023-03-21T14:29:22.822Z,18.70
2023-03-21T14:31:56.285Z,17.90
2023-03-21T14:34:26.162Z,18.40
2023-03-21T14:36:58.563Z,18.33
2023-03-21T14:39:29.820Z,17.90
2023-03-21T14:42:02.232Z,18.00
2023-03-21T14:44:44.044Z,18.23
2023-03-21T14:47:23.456Z,18.33
2023-03-21T14:49:52.226Z,18.60
2023-03-21T14:52:24.440Z,17.80
2023-03-21T14:54:53.824Z,19.37
2023-03-21T14:57:24.940Z,18.30
2023-03-21T14:59:57.553Z,19.30
2023-03-21T15:02:36.714Z,19.00
2023-03-21T15:05:11.014Z,19.30
2023-03-21T15:07:39.350Z,18.47
2023-03-21T15:10:10.221Z,19.07
2023-03-21T15:12:38.931Z,19.47
2023-03-21T15:15:08.153Z,20.57
2023-03-21T15:17:37.749Z,19.43
2023-03-21T15:20:10.179Z,19.30
2023-03-21T15:22:40.361Z,19.43
2023-03-21T15:25:15.734Z,21.07
2023-03-21T15:27:44.766Z,20.30
2023-03-21T15:30:21.836Z,19.60
2023-03-21T15:32:51.822Z,20.03
2023-03-21T15:35:26.407Z,19.10
2023-03-21T15:37:56.777Z,20.10
2023-03-21T15:40:28.208Z,19.73
2023-03-21T15:43:07.376Z,19.47
2023-03-21T15:45:35.562Z,19.20
2023-03-21T15:48:10.363Z,19.90
2023-03-21T15:50:41.074Z,20.03
2023-03-21T15:53:15.543Z,19.60
2023-03-21T15:55:48.343Z,20.40
2023-03-21T15:58:19.194Z,20.27
2023-03-21T16:00:54.393Z,20.30
2023-03-21T16:03:27.447Z,19.33
2023-03-21T16:06:10.136Z,18.53
2023-03-21T16:08:44.757Z,22.97
2023-03-21T16:11:19.363Z,21.53
2023-03-21T16:13:47.573Z,19.07
2023-03-21T16:16:18.083Z,19.73
2023-03-21T16:18:47.924Z,18.80
2023-03-21T16:21:18.301Z,19.87
2023-03-21T16:23:46.853Z,21.50
2023-03-21T16:26:17.530Z,23.13
2023-03-21T16:28:46.273Z,33.00
2023-03-21T16:31:16.509Z,53.00
2023-03-21T16:33:45.746Z,48.23
2023-03-21T16:36:18.600Z,33.10
2023-03-21T16:38:47.547Z,33.50
2023-03-21T16:41:16.337Z,33.67
2023-03-21T16:43:44.981Z,34.30
2023-03-21T16:46:15.016Z,37.07
2023-03-21T16:48:44.250Z,37.30
2023-03-21T16:51:17.437Z,37.00
2023-03-21T16:53:46.037Z,39.20
2023-03-21T16:56:16.685Z,40.20
2023-03-21T16:58:45.423Z,40.30
2023-03-21T17:01:16.424Z,41.93
2023-03-21T17:03:44.793Z,37.70
2023-03-21T17:06:18.794Z,35.83
2023-03-21T17:08:47.523Z,33.83
2023-03-21T17:11:20.158Z,32.93
2023-03-21T17:13:48.622Z,31.80
2023-03-21T17:16:18.989Z,32.00
2023-03-21T17:18:47.482Z,32.53
2023-03-21T17:21:18.388Z,34.50
2023-03-21T17:23:46.881Z,36.23
2023-03-21T17:26:16.662Z,35.97
2023-03-21T17:28:44.806Z,37.40
2023-03-21T17:31:15.485Z,41.27
2023-03-21T17:33:44.040Z,41.93
2023-03-21T17:36:15.702Z,42.00
2023-03-21T17:38:46.592Z,43.53
2023-03-21T17:41:16.483Z,43.17
2023-03-21T17:43:45.046Z,45.80
2023-03-21T17:46:15.571Z,46.63
2023-03-21T17:48:44.909Z,47.50
2023-03-21T17:51:16.086Z,49.70
2023-03-21T17:53:46.816Z,52.23
2023-03-21T17:56:16.966Z,51.93
2023-03-21T17:58:45.333Z,52.90
2023-03-21T18:01:13.498Z,53.53
2023-03-21T18:03:42.323Z,52.47
2023-03-21T18:06:16.065Z,52.90
2023-03-21T18:08:46.767Z,53.60
2023-03-21T18:11:15.141Z,53.07
2023-03-21T18:13:44.803Z,54.80
2023-03-21T18:16:15.245Z,57.80
2023-03-21T18:18:45.125Z,56.87
2023-03-21T18:21:13.575Z,55.87
2023-03-21T18:23:42.143Z,56.73
2023-03-21T18:26:16.192Z,61.47
2023-03-21T18:28:44.656Z,57.53
2023-03-21T18:31:19.888Z,55.50
2023-03-21T18:33:50.186Z,55.20
2023-03-21T18:36:25.544Z,54.73
2023-03-21T18:38:56.832Z,56.27
2023-03-21T18:41:26.428Z,58.57
2023-03-21T18:44:09.518Z,58.40
2023-03-21T18:46:46.950Z,55.47
2023-03-21T18:49:58.801Z,53.07
2023-03-21T18:52:03.712Z,56.30
2023-03-21T18:54:32.121Z,54.30
2023-03-21T18:59:49.825Z,56.40
2023-03-21T19:02:17.911Z,56.93
2023-03-21T19:04:46.452Z,54.70
2023-03-21T19:07:14.771Z,55.90
2023-03-21T19:10:05.173Z,56.80
2023-03-21T19:12:32.738Z,56.67
2023-03-21T19:15:00.875Z,59.43
2023-03-21T19:20:17.382Z,58.53
2023-03-21T19:22:46.453Z,58.80
2023-03-21T19:25:15.984Z,55.80
2023-03-21T19:27:45.941Z,57.10
2023-03-21T19:30:16.044Z,58.97
2023-03-21T19:32:44.856Z,58.10
2023-03-21T19:35:14.252Z,62.30
2023-03-21T19:37:42.463Z,60.13
2023-03-21T19:40:11.252Z,64.67
2023-03-21T19:42:40.286Z,65.10
2023-03-21T19:45:11.420Z,64.87
2023-03-21T19:47:39.609Z,65.37
2023-03-21T19:50:47.806Z,63.47
2023-03-21T19:52:57.259Z,66.63
2023-03-21T19:55:26.315Z,69.17
2023-03-21T19:57:54.421Z,68.27
2023-03-21T20:00:24.067Z,68.00
2023-03-21T20:02:52.406Z,69.70
2023-03-21T20:05:22.145Z,68.17
2023-03-21T20:07:50.474Z,72.80
2023-03-21T20:10:18.700Z,73.93
2023-03-21T20:12:46.968Z,68.93
2023-03-21T20:15:19.474Z,68.70
2023-03-21T20:17:50.947Z,66.83
2023-03-21T20:20:19.907Z,67.83
2023-03-21T20:23:07.942Z,67.90
2023-03-21T20:25:39.756Z,66.70
2023-03-21T20:28:23.871Z,63.60
2023-03-21T20:30:56.696Z,64.87
2023-03-21T20:33:26.729Z,66.30
2023-03-21T20:38:47.934Z,60.63
2023-03-21T20:41:16.063Z,63.50
2023-03-21T20:44:39.159Z,63.07
2023-03-21T20:46:32.586Z,64.00
2023-03-21T20:49:02.061Z,63.40
2023-03-21T20:52:45.814Z,63.43
2023-03-21T20:54:18.746Z,64.37
2023-03-21T20:56:47.845Z,65.03
2023-03-21T20:59:26.103Z,64.40
2023-03-21T21:01:55.767Z,65.10
2023-03-21T21:04:44.122Z,66.90
2023-03-21T21:07:15.929Z,70.03
2023-03-21T21:09:46.242Z,71.90
2023-03-21T21:12:15.657Z,69.87
2023-03-21T21:14:45.388Z,67.97
2023-03-21T21:20:12.381Z,69.10
2023-03-21T21:22:42.860Z,71.27
2023-03-21T21:25:14.239Z,69.27
2023-03-21T21:27:42.330Z,70.47
2023-03-21T21:30:12.989Z,71.97
2023-03-21T21:32:42.024Z,74.77
2023-03-21T21:35:11.969Z,73.13
2023-03-21T21:37:41.937Z,70.50
2023-03-21T21:40:12.786Z,71.40
2023-03-21T21:42:42.599Z,73.70
2023-03-21T21:45:12.262Z,75.10
2023-03-21T21:47:40.889Z,72.60
2023-03-21T21:50:11.277Z,70.47
2023-03-21T21:52:39.520Z,68.40
2023-03-21T21:55:08.186Z,69.30
2023-03-21T21:57:36.291Z,67.47
2023-03-21T22:00:12.617Z,65.73
2023-03-21T22:02:41.012Z,61.83
2023-03-21T22:05:11.446Z,59.27
2023-03-21T22:07:39.553Z,58.33
2023-03-21T22:10:08.697Z,55.37
2023-03-21T22:12:36.845Z,57.80
2023-03-21T22:15:06.928Z,57.40
2023-03-21T22:17:35.267Z,57.63
2023-03-21T22:20:06.828Z,56.90
2023-03-21T22:22:37.556Z,57.23
2023-03-21T22:25:08.576Z,57.50
2023-03-21T22:27:36.972Z,57.27
2023-03-21T22:30:07.501Z,54.70
2023-03-21T22:32:36.709Z,55.53
2023-03-21T22:35:05.952Z,51.87
2023-03-21T22:37:37.404Z,53.97
2023-03-21T22:40:08.276Z,52.73
2023-03-21T22:42:37.143Z,48.47
2023-03-21T22:45:07.666Z,51.10
2023-03-21T22:47:35.816Z,52.70
2023-03-21T22:50:04.841Z,54.43
2023-03-21T22:52:32.998Z,52.33
2023-03-21T22:55:02.436Z,50.77
2023-03-21T22:57:30.677Z,48.97
2023-03-21T22:59:58.745Z,48.13
2023-03-21T23:02:27.125Z,47.30
2023-03-21T23:04:55.892Z,49.10
2023-03-21T23:07:23.993Z,47.07
2023-03-21T23:09:52.288Z,46.97
2023-03-21T23:12:21.728Z,48.63
2023-03-21T23:14:49.891Z,48.17
2023-03-21T23:17:17.922Z,49.90
2023-03-21T23:19:46.149Z,49.80
2023-03-21T23:22:14.168Z,49.47
2023-03-21T23:24:42.240Z,51.67
2023-03-21T23:27:10.587Z,50.73
2023-03-21T23:29:40.044Z,53.40
2023-03-21T23:32:08.143Z,52.70
2023-03-21T23:34:36.686Z,56.03
2023-03-21T23:37:04.903Z,55.17
2023-03-21T23:39:33.697Z,55.57
2023-03-21T23:42:01.966Z,56.77
2023-03-21T23:44:30.077Z,58.10
2023-03-21T23:46:59.544Z,58.13
2023-03-21T23:49:27.605Z,56.40
2023-03-21T23:51:55.845Z,56.60
2023-03-21T23:54:23.931Z,59.10
2023-03-21T23:56:52.009Z,58.80
2023-03-21T23:59:20.091Z,59.40
